sensor_id;sensor_type;location;lat;lon;timestamp;P1;durP1;ratioP1;P2;durP2;ratioP2
8665;SDS011;4370;48.916;8.380;2022-09-11T00:00:27;3.63;;;1.50;;
8665;SDS011;4370;48.916;8.380;2022-09-11T00:02:53;2.80;;;1.50;;
8665;SDS011;4370;48.916;8.380;2022-09-11T00:05:19;5.13;;;1.70;;
8665;SDS011;4370;48.916;8.380;2022-09-11T00:07:45;1.87;;;1.40;;
8665;SDS011;4370;48.916;8.380;2022-09-11T00:10:12;2.57;;;1.80;;
8665;SDS011;4370;48.916;8.380;2022-09-11T00:12:38;2.80;;;1.40;;
8665;SDS011;4370;48.916;8.380;2022-09-11T00:15:04;4.77;;;1.60;;
8665;SDS011;4370;48.916;8.380;2022-09-11T00:17:30;2.53;;;1.50;;
8665;SDS011;4370;48.916;8.380;2022-09-11T00:19:56;1.93;;;1.50;;
8665;SDS011;4370;48.916;8.380;2022-09-11T00:22:22;1.87;;;1.60;;
8665;SDS011;4370;48.916;8.380;2022-09-11T00:24:48;2.73;;;1.50;;
8665;SDS011;4370;48.916;8.380;2022-09-11T00:27:14;4.67;;;1.70;;
8665;SDS011;4370;48.916;8.380;2022-09-11T00:29:40;1.53;;;1.40;;
8665;SDS011;4370;48.916;8.380;2022-09-11T00:32:05;2.73;;;1.60;;
8665;SDS011;4370;48.916;8.380;2022-09-11T00:34:31;2.93;;;1.60;;
8665;SDS011;4370;48.916;8.380;2022-09-11T00:36:58;4.13;;;1.50;;
8665;SDS011;4370;48.916;8.380;2022-09-11T00:39:24;2.77;;;1.60;;
8665;SDS011;4370;48.916;8.380;2022-09-11T00:41:50;5.33;;;1.80;;
8665;SDS011;4370;48.916;8.380;2022-09-11T00:46:46;3.70;;;1.60;;
8665;SDS011;4370;48.916;8.380;2022-09-11T00:49:20;1.60;;;1.50;;
8665;SDS011;4370;48.916;8.380;2022-09-11T00:51:56;2.63;;;1.60;;
8665;SDS011;4370;48.916;8.380;2022-09-11T00:54:25;5.43;;;2.13;;
8665;SDS011;4370;48.916;8.380;2022-09-11T00:56:53;3.40;;;1.80;;
8665;SDS011;4370;48.916;8.380;2022-09-11T00:59:23;3.33;;;1.93;;
8665;SDS011;4370;48.916;8.380;2022-09-11T01:01:51;4.30;;;1.80;;
8665;SDS011;4370;48.916;8.380;2022-09-11T01:04:17;3.47;;;1.70;;
8665;SDS011;4370;48.916;8.380;2022-09-11T01:06:44;2.50;;;1.57;;
8665;SDS011;4370;48.916;8.380;2022-09-11T01:09:11;1.70;;;1.30;;
8665;SDS011;4370;48.916;8.380;2022-09-11T01:11:48;2.47;;;1.63;;
8665;SDS011;4370;48.916;8.380;2022-09-11T01:30:08;2.70;;;1.43;;
8665;SDS011;4370;48.916;8.380;2022-09-11T01:32:42;2.83;;;1.60;;
8665;SDS011;4370;48.916;8.380;2022-09-11T01:35:15;4.07;;;1.90;;
8665;SDS011;4370;48.916;8.380;2022-09-11T01:37:51;6.70;;;2.20;;
8665;SDS011;4370;48.916;8.380;2022-09-11T01:40:33;3.80;;;1.70;;
8665;SDS011;4370;48.916;8.380;2022-09-11T01:43:05;2.80;;;1.80;;
8665;SDS011;4370;48.916;8.380;2022-09-11T01:45:40;4.13;;;2.00;;
8665;SDS011;4370;48.916;8.380;2022-09-11T01:48:08;4.50;;;1.93;;
8665;SDS011;4370;48.916;8.380;2022-09-11T01:50:36;4.83;;;2.00;;
8665;SDS011;4370;48.916;8.380;2022-09-11T01:53:04;3.73;;;1.70;;
8665;SDS011;4370;48.916;8.380;2022-09-11T01:55:42;3.17;;;1.70;;
8665;SDS011;4370;48.916;8.380;2022-09-11T01:58:29;3.30;;;1.80;;
8665;SDS011;4370;48.916;8.380;2022-09-11T02:01:06;4.47;;;1.90;;
8665;SDS011;4370;48.916;8.380;2022-09-11T02:03:51;3.57;;;1.80;;
8665;SDS011;4370;48.916;8.380;2022-09-11T02:06:29;2.90;;;2.00;;
8665;SDS011;4370;48.916;8.380;2022-09-11T02:09:03;4.20;;;2.20;;
8665;SDS011;4370;48.916;8.380;2022-09-11T02:11:32;3.10;;;1.83;;
8665;SDS011;4370;48.916;8.380;2022-09-11T02:14:08;2.83;;;1.60;;
8665;SDS011;4370;48.916;8.380;2022-09-11T02:16:51;5.83;;;2.20;;
8665;SDS011;4370;48.916;8.380;2022-09-11T02:19:24;2.40;;;1.77;;
8665;SDS011;4370;48.916;8.380;2022-09-11T02:21:53;2.83;;;1.80;;
8665;SDS011;4370;48.916;8.380;2022-09-11T02:24:19;5.00;;;1.80;;
8665;SDS011;4370;48.916;8.380;2022-09-11T02:26:50;4.50;;;1.80;;
8665;SDS011;4370;48.916;8.380;2022-09-11T02:29:18;2.13;;;1.80;;
8665;SDS011;4370;48.916;8.380;2022-09-11T02:31:45;2.70;;;1.93;;
8665;SDS011;4370;48.916;8.380;2022-09-11T02:34:11;3.27;;;1.50;;
8665;SDS011;4370;48.916;8.380;2022-09-11T02:36:43;5.77;;;1.80;;
8665;SDS011;4370;48.916;8.380;2022-09-11T02:52:36;2.97;;;1.90;;
8665;SDS011;4370;48.916;8.380;2022-09-11T02:58:25;2.93;;;2.00;;
8665;SDS011;4370;48.916;8.380;2022-09-11T03:00:56;4.37;;;2.10;;
8665;SDS011;4370;48.916;8.380;2022-09-11T03:03:24;2.77;;;2.10;;
8665;SDS011;4370;48.916;8.380;2022-09-11T03:05:50;2.13;;;1.70;;
8665;SDS011;4370;48.916;8.380;2022-09-11T03:08:17;3.43;;;1.93;;
8665;SDS011;4370;48.916;8.380;2022-09-11T03:10:42;4.13;;;1.73;;
8665;SDS011;4370;48.916;8.380;2022-09-11T03:13:10;4.13;;;1.90;;
8665;SDS011;4370;48.916;8.380;2022-09-11T03:15:36;3.50;;;1.70;;
8665;SDS011;4370;48.916;8.380;2022-09-11T03:18:02;3.03;;;1.87;;
8665;SDS011;4370;48.916;8.380;2022-09-11T03:20:29;2.87;;;1.73;;
8665;SDS011;4370;48.916;8.380;2022-09-11T03:22:55;4.30;;;2.13;;
8665;SDS011;4370;48.916;8.380;2022-09-11T03:25:21;3.80;;;1.97;;
8665;SDS011;4370;48.916;8.380;2022-09-11T03:27:52;4.27;;;1.80;;
8665;SDS011;4370;48.916;8.380;2022-09-11T03:30:18;2.53;;;1.70;;
8665;SDS011;4370;48.916;8.380;2022-09-11T03:32:44;2.07;;;1.60;;
8665;SDS011;4370;48.916;8.380;2022-09-11T03:35:10;3.33;;;2.10;;
8665;SDS011;4370;48.916;8.380;2022-09-11T03:37:36;2.13;;;1.87;;
8665;SDS011;4370;48.916;8.380;2022-09-11T03:40:02;4.60;;;1.90;;
8665;SDS011;4370;48.916;8.380;2022-09-11T03:42:28;2.30;;;2.10;;
8665;SDS011;4370;48.916;8.380;2022-09-11T03:44:55;2.50;;;1.80;;
8665;SDS011;4370;48.916;8.380;2022-09-11T03:47:21;3.47;;;1.83;;
8665;SDS011;4370;48.916;8.380;2022-09-11T03:49:47;5.60;;;2.17;;
8665;SDS011;4370;48.916;8.380;2022-09-11T03:52:13;3.50;;;1.70;;
8665;SDS011;4370;48.916;8.380;2022-09-11T03:54:39;3.57;;;2.07;;
8665;SDS011;4370;48.916;8.380;2022-09-11T03:57:05;3.73;;;2.27;;
8665;SDS011;4370;48.916;8.380;2022-09-11T03:59:31;2.63;;;2.00;;
8665;SDS011;4370;48.916;8.380;2022-09-11T04:01:57;4.30;;;2.10;;
8665;SDS011;4370;48.916;8.380;2022-09-11T04:04:23;5.87;;;2.03;;
8665;SDS011;4370;48.916;8.380;2022-09-11T04:06:49;3.30;;;2.10;;
8665;SDS011;4370;48.916;8.380;2022-09-11T04:09:14;2.57;;;2.20;;
8665;SDS011;4370;48.916;8.380;2022-09-11T04:11:41;6.60;;;2.33;;
8665;SDS011;4370;48.916;8.380;2022-09-11T04:14:07;3.67;;;2.60;;
8665;SDS011;4370;48.916;8.380;2022-09-11T04:16:33;6.03;;;2.60;;
8665;SDS011;4370;48.916;8.380;2022-09-11T04:18:59;4.97;;;2.40;;
8665;SDS011;4370;48.916;8.380;2022-09-11T04:21:26;3.87;;;2.07;;
8665;SDS011;4370;48.916;8.380;2022-09-11T04:23:54;5.37;;;2.57;;
8665;SDS011;4370;48.916;8.380;2022-09-11T04:26:21;8.00;;;2.83;;
8665;SDS011;4370;48.916;8.380;2022-09-11T04:28:48;4.03;;;2.50;;
8665;SDS011;4370;48.916;8.380;2022-09-11T04:31:14;3.10;;;2.20;;
8665;SDS011;4370;48.916;8.380;2022-09-11T04:33:41;3.10;;;2.50;;
8665;SDS011;4370;48.916;8.380;2022-09-11T04:36:08;3.87;;;2.40;;
8665;SDS011;4370;48.916;8.380;2022-09-11T04:38:37;3.10;;;2.30;;
8665;SDS011;4370;48.916;8.380;2022-09-11T04:41:05;3.33;;;2.70;;
8665;SDS011;4370;48.916;8.380;2022-09-11T04:43:32;3.40;;;2.33;;
8665;SDS011;4370;48.916;8.380;2022-09-11T04:46:02;2.30;;;2.10;;
8665;SDS011;4370;48.916;8.380;2022-09-11T04:48:33;3.63;;;2.57;;
8665;SDS011;4370;48.916;8.380;2022-09-11T04:51:04;5.50;;;2.40;;
8665;SDS011;4370;48.916;8.380;2022-09-11T04:53:32;4.83;;;2.40;;
8665;SDS011;4370;48.916;8.380;2022-09-11T04:56:05;3.33;;;2.50;;
8665;SDS011;4370;48.916;8.380;2022-09-11T04:58:34;4.33;;;2.90;;
8665;SDS011;4370;48.916;8.380;2022-09-11T05:01:00;2.47;;;2.27;;
8665;SDS011;4370;48.916;8.380;2022-09-11T05:03:33;4.33;;;3.27;;
8665;SDS011;4370;48.916;8.380;2022-09-11T05:06:03;3.53;;;2.60;;
8665;SDS011;4370;48.916;8.380;2022-09-11T05:08:29;3.50;;;2.70;;
8665;SDS011;4370;48.916;8.380;2022-09-11T05:10:57;2.93;;;2.30;;
8665;SDS011;4370;48.916;8.380;2022-09-11T05:13:24;3.53;;;3.10;;
8665;SDS011;4370;48.916;8.380;2022-09-11T05:15:50;3.93;;;2.70;;
8665;SDS011;4370;48.916;8.380;2022-09-11T05:18:16;4.17;;;2.63;;
8665;SDS011;4370;48.916;8.380;2022-09-11T05:20:42;4.43;;;2.67;;
8665;SDS011;4370;48.916;8.380;2022-09-11T05:23:10;4.57;;;2.80;;
8665;SDS011;4370;48.916;8.380;2022-09-11T05:25:36;4.10;;;2.53;;
8665;SDS011;4370;48.916;8.380;2022-09-11T05:28:03;3.07;;;2.60;;
8665;SDS011;4370;48.916;8.380;2022-09-11T05:30:29;3.57;;;2.60;;
8665;SDS011;4370;48.916;8.380;2022-09-11T05:32:55;4.27;;;2.50;;
8665;SDS011;4370;48.916;8.380;2022-09-11T05:35:24;3.93;;;2.73;;
8665;SDS011;4370;48.916;8.380;2022-09-11T05:37:50;3.23;;;2.40;;
8665;SDS011;4370;48.916;8.380;2022-09-11T05:40:16;3.13;;;2.50;;
8665;SDS011;4370;48.916;8.380;2022-09-11T05:42:42;2.77;;;2.33;;
8665;SDS011;4370;48.916;8.380;2022-09-11T05:45:08;4.37;;;2.70;;
8665;SDS011;4370;48.916;8.380;2022-09-11T05:47:34;4.17;;;2.43;;
8665;SDS011;4370;48.916;8.380;2022-09-11T05:50:00;2.70;;;2.33;;
8665;SDS011;4370;48.916;8.380;2022-09-11T05:52:27;3.80;;;2.67;;
8665;SDS011;4370;48.916;8.380;2022-09-11T05:54:54;3.27;;;2.73;;
8665;SDS011;4370;48.916;8.380;2022-09-11T05:57:20;3.70;;;2.50;;
8665;SDS011;4370;48.916;8.380;2022-09-11T05:59:46;2.43;;;2.20;;
8665;SDS011;4370;48.916;8.380;2022-09-11T06:02:12;3.23;;;2.23;;
8665;SDS011;4370;48.916;8.380;2022-09-11T06:04:38;3.80;;;2.20;;
8665;SDS011;4370;48.916;8.380;2022-09-11T06:07:04;3.23;;;2.40;;
8665;SDS011;4370;48.916;8.380;2022-09-11T06:09:30;3.30;;;2.27;;
8665;SDS011;4370;48.916;8.380;2022-09-11T06:11:56;3.13;;;2.40;;
8665;SDS011;4370;48.916;8.380;2022-09-11T06:14:22;3.30;;;2.47;;
8665;SDS011;4370;48.916;8.380;2022-09-11T06:16:49;3.40;;;2.47;;
8665;SDS011;4370;48.916;8.380;2022-09-11T06:19:15;3.07;;;2.33;;
8665;SDS011;4370;48.916;8.380;2022-09-11T06:21:41;3.70;;;2.43;;
8665;SDS011;4370;48.916;8.380;2022-09-11T06:24:07;3.43;;;2.63;;
8665;SDS011;4370;48.916;8.380;2022-09-11T06:26:33;5.80;;;2.30;;
8665;SDS011;4370;48.916;8.380;2022-09-11T06:28:59;7.03;;;2.40;;
8665;SDS011;4370;48.916;8.380;2022-09-11T06:31:26;2.80;;;2.30;;
8665;SDS011;4370;48.916;8.380;2022-09-11T06:33:52;2.70;;;2.30;;
8665;SDS011;4370;48.916;8.380;2022-09-11T06:36:19;2.60;;;2.13;;
8665;SDS011;4370;48.916;8.380;2022-09-11T06:38:51;5.63;;;2.57;;
8665;SDS011;4370;48.916;8.380;2022-09-11T06:41:18;4.07;;;2.60;;
8665;SDS011;4370;48.916;8.380;2022-09-11T06:43:44;6.37;;;2.50;;
8665;SDS011;4370;48.916;8.380;2022-09-11T06:46:14;5.87;;;2.93;;
8665;SDS011;4370;48.916;8.380;2022-09-11T06:48:42;4.40;;;2.40;;
8665;SDS011;4370;48.916;8.380;2022-09-11T06:51:10;3.83;;;2.60;;
8665;SDS011;4370;48.916;8.380;2022-09-11T06:53:37;4.20;;;2.70;;
8665;SDS011;4370;48.916;8.380;2022-09-11T06:56:04;3.03;;;2.33;;
8665;SDS011;4370;48.916;8.380;2022-09-11T06:58:31;2.40;;;2.20;;
8665;SDS011;4370;48.916;8.380;2022-09-11T07:01:03;3.60;;;2.50;;
8665;SDS011;4370;48.916;8.380;2022-09-11T07:03:30;2.87;;;2.50;;
8665;SDS011;4370;48.916;8.380;2022-09-11T07:05:56;3.77;;;2.33;;
8665;SDS011;4370;48.916;8.380;2022-09-11T07:08:22;5.67;;;2.40;;
8665;SDS011;4370;48.916;8.380;2022-09-11T07:10:48;5.73;;;2.53;;
8665;SDS011;4370;48.916;8.380;2022-09-11T07:13:14;3.37;;;2.77;;
8665;SDS011;4370;48.916;8.380;2022-09-11T07:15:40;4.47;;;2.50;;
8665;SDS011;4370;48.916;8.380;2022-09-11T07:18:07;7.03;;;3.27;;
8665;SDS011;4370;48.916;8.380;2022-09-11T07:20:32;3.77;;;2.57;;
8665;SDS011;4370;48.916;8.380;2022-09-11T07:22:58;4.60;;;2.53;;
8665;SDS011;4370;48.916;8.380;2022-09-11T07:25:25;5.20;;;2.50;;
8665;SDS011;4370;48.916;8.380;2022-09-11T07:27:51;4.73;;;2.57;;
8665;SDS011;4370;48.916;8.380;2022-09-11T07:30:17;8.53;;;3.47;;
8665;SDS011;4370;48.916;8.380;2022-09-11T07:32:44;3.00;;;2.70;;
8665;SDS011;4370;48.916;8.380;2022-09-11T07:35:10;5.20;;;3.00;;
8665;SDS011;4370;48.916;8.380;2022-09-11T07:37:36;3.73;;;2.70;;
8665;SDS011;4370;48.916;8.380;2022-09-11T07:40:03;7.87;;;3.33;;
8665;SDS011;4370;48.916;8.380;2022-09-11T07:42:29;6.50;;;4.27;;
8665;SDS011;4370;48.916;8.380;2022-09-11T07:44:56;4.63;;;3.10;;
8665;SDS011;4370;48.916;8.380;2022-09-11T07:47:22;2.80;;;2.60;;
8665;SDS011;4370;48.916;8.380;2022-09-11T07:49:48;3.73;;;2.90;;
8665;SDS011;4370;48.916;8.380;2022-09-11T07:52:14;4.83;;;3.00;;
8665;SDS011;4370;48.916;8.380;2022-09-11T07:54:42;4.03;;;3.20;;
8665;SDS011;4370;48.916;8.380;2022-09-11T07:57:08;4.83;;;3.00;;
8665;SDS011;4370;48.916;8.380;2022-09-11T07:59:34;6.47;;;3.30;;
8665;SDS011;4370;48.916;8.380;2022-09-11T08:02:00;4.10;;;2.73;;
8665;SDS011;4370;48.916;8.380;2022-09-11T08:04:26;3.60;;;2.80;;
8665;SDS011;4370;48.916;8.380;2022-09-11T08:06:52;3.83;;;2.80;;
8665;SDS011;4370;48.916;8.380;2022-09-11T08:09:18;6.10;;;3.20;;
8665;SDS011;4370;48.916;8.380;2022-09-11T08:11:45;7.47;;;3.27;;
8665;SDS011;4370;48.916;8.380;2022-09-11T08:14:13;4.60;;;3.00;;
8665;SDS011;4370;48.916;8.380;2022-09-11T08:16:39;4.40;;;2.80;;
8665;SDS011;4370;48.916;8.380;2022-09-11T08:19:05;4.43;;;2.90;;
8665;SDS011;4370;48.916;8.380;2022-09-11T08:21:32;4.03;;;3.10;;
8665;SDS011;4370;48.916;8.380;2022-09-11T08:23:59;4.03;;;3.27;;
8665;SDS011;4370;48.916;8.380;2022-09-11T08:26:28;3.07;;;2.63;;
8665;SDS011;4370;48.916;8.380;2022-09-11T08:28:55;3.50;;;2.70;;
8665;SDS011;4370;48.916;8.380;2022-09-11T08:31:22;3.40;;;2.80;;
8665;SDS011;4370;48.916;8.380;2022-09-11T08:33:52;5.10;;;3.13;;
8665;SDS011;4370;48.916;8.380;2022-09-11T08:36:19;5.93;;;3.00;;
8665;SDS011;4370;48.916;8.380;2022-09-11T08:38:45;5.10;;;3.23;;
8665;SDS011;4370;48.916;8.380;2022-09-11T08:44:02;6.20;;;3.80;;
8665;SDS011;4370;48.916;8.380;2022-09-11T08:46:52;5.27;;;3.40;;
8665;SDS011;4370;48.916;8.380;2022-09-11T08:51:48;4.87;;;3.07;;
8665;SDS011;4370;48.916;8.380;2022-09-11T08:54:21;5.07;;;3.10;;
8665;SDS011;4370;48.916;8.380;2022-09-11T08:56:51;6.30;;;3.10;;
8665;SDS011;4370;48.916;8.380;2022-09-11T08:59:31;7.07;;;2.97;;
8665;SDS011;4370;48.916;8.380;2022-09-11T09:05:26;6.23;;;3.63;;
8665;SDS011;4370;48.916;8.380;2022-09-11T09:10:28;3.87;;;2.90;;
8665;SDS011;4370;48.916;8.380;2022-09-11T09:13:34;4.67;;;3.37;;
8665;SDS011;4370;48.916;8.380;2022-09-11T09:16:34;3.20;;;2.90;;
8665;SDS011;4370;48.916;8.380;2022-09-11T09:19:19;3.83;;;3.00;;
8665;SDS011;4370;48.916;8.380;2022-09-11T09:21:58;3.97;;;3.20;;
8665;SDS011;4370;48.916;8.380;2022-09-11T09:24:43;6.80;;;3.20;;
8665;SDS011;4370;48.916;8.380;2022-09-11T09:27:19;5.73;;;3.33;;
8665;SDS011;4370;48.916;8.380;2022-09-11T09:29:54;4.37;;;3.03;;
8665;SDS011;4370;48.916;8.380;2022-09-11T09:32:22;4.63;;;2.93;;
8665;SDS011;4370;48.916;8.380;2022-09-11T09:34:56;4.67;;;3.40;;
8665;SDS011;4370;48.916;8.380;2022-09-11T09:37:26;4.13;;;2.93;;
8665;SDS011;4370;48.916;8.380;2022-09-11T09:39:52;4.07;;;3.10;;
8665;SDS011;4370;48.916;8.380;2022-09-11T09:47:54;4.77;;;3.47;;
8665;SDS011;4370;48.916;8.380;2022-09-11T09:50:23;4.20;;;3.00;;
8665;SDS011;4370;48.916;8.380;2022-09-11T09:52:53;5.60;;;2.93;;
8665;SDS011;4370;48.916;8.380;2022-09-11T09:55:45;3.97;;;2.93;;
8665;SDS011;4370;48.916;8.380;2022-09-11T09:58:11;5.37;;;3.10;;
8665;SDS011;4370;48.916;8.380;2022-09-11T10:00:37;4.80;;;2.70;;
8665;SDS011;4370;48.916;8.380;2022-09-11T10:05:44;9.87;;;3.57;;
8665;SDS011;4370;48.916;8.380;2022-09-11T10:08:33;4.93;;;3.00;;
8665;SDS011;4370;48.916;8.380;2022-09-11T10:11:02;4.30;;;3.13;;
8665;SDS011;4370;48.916;8.380;2022-09-11T10:13:30;3.53;;;3.00;;
8665;SDS011;4370;48.916;8.380;2022-09-11T10:16:03;6.97;;;2.87;;
8665;SDS011;4370;48.916;8.380;2022-09-11T10:18:43;3.78;;;2.53;;
8665;SDS011;4370;48.916;8.380;2022-09-11T10:23:44;3.10;;;2.80;;
8665;SDS011;4370;48.916;8.380;2022-09-11T10:26:15;3.58;;;2.80;;
8665;SDS011;4370;48.916;8.380;2022-09-11T10:28:44;4.13;;;2.60;;
8665;SDS011;4370;48.916;8.380;2022-09-11T10:31:12;2.80;;;2.53;;
8665;SDS011;4370;48.916;8.380;2022-09-11T10:33:47;3.27;;;2.60;;
8665;SDS011;4370;48.916;8.380;2022-09-11T10:36:20;5.05;;;2.90;;
8665;SDS011;4370;48.916;8.380;2022-09-11T10:38:53;6.03;;;3.00;;
8665;SDS011;4370;48.916;8.380;2022-09-11T10:41:22;3.67;;;2.87;;
8665;SDS011;4370;48.916;8.380;2022-09-11T10:51:28;4.10;;;3.10;;
8665;SDS011;4370;48.916;8.380;2022-09-11T10:53:57;3.53;;;3.00;;
8665;SDS011;4370;48.916;8.380;2022-09-11T10:56:38;5.40;;;3.27;;
8665;SDS011;4370;48.916;8.380;2022-09-11T11:00:00;3.07;;;2.83;;
8665;SDS011;4370;48.916;8.380;2022-09-11T11:02:42;3.30;;;2.77;;
8665;SDS011;4370;48.916;8.380;2022-09-11T11:05:13;5.60;;;3.30;;
8665;SDS011;4370;48.916;8.380;2022-09-11T11:07:55;4.33;;;2.90;;
8665;SDS011;4370;48.916;8.380;2022-09-11T11:10:49;5.23;;;3.00;;
8665;SDS011;4370;48.916;8.380;2022-09-11T11:24:57;4.37;;;2.63;;
8665;SDS011;4370;48.916;8.380;2022-09-11T11:38:53;3.70;;;2.63;;
8665;SDS011;4370;48.916;8.380;2022-09-11T11:41:28;2.87;;;2.47;;
8665;SDS011;4370;48.916;8.380;2022-09-11T11:43:58;2.70;;;2.50;;
8665;SDS011;4370;48.916;8.380;2022-09-11T11:46:32;3.77;;;2.80;;
8665;SDS011;4370;48.916;8.380;2022-09-11T11:49:17;3.17;;;2.53;;
8665;SDS011;4370;48.916;8.380;2022-09-11T11:51:53;4.53;;;2.83;;
8665;SDS011;4370;48.916;8.380;2022-09-11T11:54:31;2.83;;;2.50;;
8665;SDS011;4370;48.916;8.380;2022-09-11T11:57:08;3.90;;;2.70;;
8665;SDS011;4370;48.916;8.380;2022-09-11T11:59:44;3.73;;;2.80;;
8665;SDS011;4370;48.916;8.380;2022-09-11T12:02:42;2.97;;;2.60;;
8665;SDS011;4370;48.916;8.380;2022-09-11T12:05:24;3.70;;;2.50;;
8665;SDS011;4370;48.916;8.380;2022-09-11T12:07:52;2.67;;;2.30;;
8665;SDS011;4370;48.916;8.380;2022-09-11T12:10:25;2.50;;;2.30;;
8665;SDS011;4370;48.916;8.380;2022-09-11T12:13:01;2.80;;;2.40;;
8665;SDS011;4370;48.916;8.380;2022-09-11T12:15:31;2.93;;;2.20;;
8665;SDS011;4370;48.916;8.380;2022-09-11T12:20:41;4.50;;;2.20;;
8665;SDS011;4370;48.916;8.380;2022-09-11T12:26:29;2.27;;;2.10;;
8665;SDS011;4370;48.916;8.380;2022-09-11T12:37:14;2.10;;;1.90;;
8665;SDS011;4370;48.916;8.380;2022-09-11T12:40:04;2.77;;;2.40;;
8665;SDS011;4370;48.916;8.380;2022-09-11T12:48:03;2.50;;;2.10;;
8665;SDS011;4370;48.916;8.380;2022-09-11T12:50:31;2.73;;;2.10;;
8665;SDS011;4370;48.916;8.380;2022-09-11T12:52:57;2.53;;;2.20;;
8665;SDS011;4370;48.916;8.380;2022-09-11T12:55:42;3.37;;;2.50;;
8665;SDS011;4370;48.916;8.380;2022-09-11T13:00:44;2.40;;;2.20;;
8665;SDS011;4370;48.916;8.380;2022-09-11T13:03:35;3.13;;;2.30;;
8665;SDS011;4370;48.916;8.380;2022-09-11T13:06:08;4.30;;;2.03;;
8665;SDS011;4370;48.916;8.380;2022-09-11T13:08:36;2.53;;;2.27;;
8665;SDS011;4370;48.916;8.380;2022-09-11T13:14:01;2.73;;;2.07;;
8665;SDS011;4370;48.916;8.380;2022-09-11T13:16:28;3.17;;;2.00;;
8665;SDS011;4370;48.916;8.380;2022-09-11T13:19:13;3.73;;;2.33;;
8665;SDS011;4370;48.916;8.380;2022-09-11T13:21:44;2.93;;;2.10;;
8665;SDS011;4370;48.916;8.380;2022-09-11T13:24:32;2.47;;;2.10;;
8665;SDS011;4370;48.916;8.380;2022-09-11T13:27:01;2.03;;;1.93;;
8665;SDS011;4370;48.916;8.380;2022-09-11T13:29:30;2.33;;;2.07;;
8665;SDS011;4370;48.916;8.380;2022-09-11T13:31:59;2.37;;;2.10;;
8665;SDS011;4370;48.916;8.380;2022-09-11T13:34:46;3.47;;;2.43;;
8665;SDS011;4370;48.916;8.380;2022-09-11T13:37:28;2.47;;;2.00;;
8665;SDS011;4370;48.916;8.380;2022-09-11T13:39:59;2.47;;;2.00;;
8665;SDS011;4370;48.916;8.380;2022-09-11T13:42:26;2.37;;;2.17;;
8665;SDS011;4370;48.916;8.380;2022-09-11T13:44:54;3.00;;;2.20;;
8665;SDS011;4370;48.916;8.380;2022-09-11T13:47:25;2.60;;;2.40;;
8665;SDS011;4370;48.916;8.380;2022-09-11T13:49:58;3.23;;;2.20;;
8665;SDS011;4370;48.916;8.380;2022-09-11T13:52:27;2.33;;;2.13;;
8665;SDS011;4370;48.916;8.380;2022-09-11T13:54:56;3.57;;;2.70;;
8665;SDS011;4370;48.916;8.380;2022-09-11T13:57:25;3.43;;;2.80;;
8665;SDS011;4370;48.916;8.380;2022-09-11T14:04:46;2.63;;;2.30;;
8665;SDS011;4370;48.916;8.380;2022-09-11T14:07:17;2.37;;;2.17;;
8665;SDS011;4370;48.916;8.380;2022-09-11T14:10:14;2.70;;;2.00;;
8665;SDS011;4370;48.916;8.380;2022-09-11T14:12:48;2.50;;;2.30;;
8665;SDS011;4370;48.916;8.380;2022-09-11T14:15:22;2.77;;;2.13;;
8665;SDS011;4370;48.916;8.380;2022-09-11T14:18:11;2.10;;;1.90;;
8665;SDS011;4370;48.916;8.380;2022-09-11T14:21:00;3.33;;;1.90;;
8665;SDS011;4370;48.916;8.380;2022-09-11T14:23:29;3.57;;;2.20;;
8665;SDS011;4370;48.916;8.380;2022-09-11T14:26:02;3.17;;;1.90;;
8665;SDS011;4370;48.916;8.380;2022-09-11T14:28:35;1.80;;;1.70;;
8665;SDS011;4370;48.916;8.380;2022-09-11T14:31:06;2.00;;;1.80;;
8665;SDS011;4370;48.916;8.380;2022-09-11T14:33:33;2.00;;;1.80;;
8665;SDS011;4370;48.916;8.380;2022-09-11T14:36:01;2.20;;;2.00;;
8665;SDS011;4370;48.916;8.380;2022-09-11T14:38:29;2.30;;;2.10;;
8665;SDS011;4370;48.916;8.380;2022-09-11T14:40:57;2.20;;;2.03;;
8665;SDS011;4370;48.916;8.380;2022-09-11T14:43:26;3.03;;;2.10;;
8665;SDS011;4370;48.916;8.380;2022-09-11T14:45:56;2.03;;;1.80;;
8665;SDS011;4370;48.916;8.380;2022-09-11T14:48:23;2.50;;;1.70;;
8665;SDS011;4370;48.916;8.380;2022-09-11T14:50:50;2.90;;;2.40;;
8665;SDS011;4370;48.916;8.380;2022-09-11T14:53:16;3.43;;;2.23;;
8665;SDS011;4370;48.916;8.380;2022-09-11T14:55:47;2.70;;;2.10;;
8665;SDS011;4370;48.916;8.380;2022-09-11T14:58:15;1.90;;;1.80;;
8665;SDS011;4370;48.916;8.380;2022-09-11T15:00:41;3.07;;;1.93;;
8665;SDS011;4370;48.916;8.380;2022-09-11T15:03:07;2.33;;;2.00;;
8665;SDS011;4370;48.916;8.380;2022-09-11T15:05:33;2.23;;;2.03;;
8665;SDS011;4370;48.916;8.380;2022-09-11T15:07:59;2.60;;;1.97;;
8665;SDS011;4370;48.916;8.380;2022-09-11T15:10:25;2.00;;;1.90;;
8665;SDS011;4370;48.916;8.380;2022-09-11T15:12:51;2.00;;;1.70;;
8665;SDS011;4370;48.916;8.380;2022-09-11T15:15:17;2.33;;;2.13;;
8665;SDS011;4370;48.916;8.380;2022-09-11T15:17:43;2.10;;;1.90;;
8665;SDS011;4370;48.916;8.380;2022-09-11T15:20:10;2.03;;;1.83;;
8665;SDS011;4370;48.916;8.380;2022-09-11T15:22:36;2.17;;;1.97;;
8665;SDS011;4370;48.916;8.380;2022-09-11T15:25:02;2.37;;;2.03;;
8665;SDS011;4370;48.916;8.380;2022-09-11T15:27:28;2.10;;;1.90;;
8665;SDS011;4370;48.916;8.380;2022-09-11T15:29:55;2.07;;;1.80;;
8665;SDS011;4370;48.916;8.380;2022-09-11T15:32:21;2.13;;;1.93;;
8665;SDS011;4370;48.916;8.380;2022-09-11T15:34:47;4.43;;;1.83;;
8665;SDS011;4370;48.916;8.380;2022-09-11T15:37:13;2.57;;;1.83;;
8665;SDS011;4370;48.916;8.380;2022-09-11T15:39:40;3.33;;;2.13;;
8665;SDS011;4370;48.916;8.380;2022-09-11T15:42:06;2.20;;;2.00;;
8665;SDS011;4370;48.916;8.380;2022-09-11T15:44:34;4.33;;;2.03;;
8665;SDS011;4370;48.916;8.380;2022-09-11T15:47:00;2.57;;;1.93;;
8665;SDS011;4370;48.916;8.380;2022-09-11T15:49:28;1.97;;;1.87;;
8665;SDS011;4370;48.916;8.380;2022-09-11T15:51:56;2.80;;;2.00;;
8665;SDS011;4370;48.916;8.380;2022-09-11T15:54:22;1.70;;;1.60;;
8665;SDS011;4370;48.916;8.380;2022-09-11T15:56:48;2.97;;;2.00;;
8665;SDS011;4370;48.916;8.380;2022-09-11T15:59:14;1.97;;;1.77;;
8665;SDS011;4370;48.916;8.380;2022-09-11T16:01:41;1.90;;;1.80;;
8665;SDS011;4370;48.916;8.380;2022-09-11T16:04:07;2.23;;;2.00;;
8665;SDS011;4370;48.916;8.380;2022-09-11T16:06:35;2.20;;;1.80;;
8665;SDS011;4370;48.916;8.380;2022-09-11T16:09:04;1.90;;;1.80;;
8665;SDS011;4370;48.916;8.380;2022-09-11T16:11:32;2.30;;;2.10;;
8665;SDS011;4370;48.916;8.380;2022-09-11T16:14:00;1.90;;;1.80;;
8665;SDS011;4370;48.916;8.380;2022-09-11T16:16:26;1.87;;;1.73;;
8665;SDS011;4370;48.916;8.380;2022-09-11T16:18:53;2.30;;;2.10;;
8665;SDS011;4370;48.916;8.380;2022-09-11T16:21:19;2.20;;;2.00;;
8665;SDS011;4370;48.916;8.380;2022-09-11T16:23:47;2.40;;;2.20;;
8665;SDS011;4370;48.916;8.380;2022-09-11T16:26:14;3.20;;;2.30;;
8665;SDS011;4370;48.916;8.380;2022-09-11T16:28:42;3.27;;;2.10;;
8665;SDS011;4370;48.916;8.380;2022-09-11T16:31:08;2.00;;;1.90;;
8665;SDS011;4370;48.916;8.380;2022-09-11T16:33:38;2.03;;;1.83;;
8665;SDS011;4370;48.916;8.380;2022-09-11T16:36:09;2.20;;;2.00;;
8665;SDS011;4370;48.916;8.380;2022-09-11T16:38:36;2.33;;;2.13;;
8665;SDS011;4370;48.916;8.380;2022-09-11T16:41:07;2.20;;;2.00;;
8665;SDS011;4370;48.916;8.380;2022-09-11T16:43:36;1.97;;;1.83;;
8665;SDS011;4370;48.916;8.380;2022-09-11T16:46:03;2.43;;;2.17;;
8665;SDS011;4370;48.916;8.380;2022-09-11T16:48:30;2.30;;;2.10;;
8665;SDS011;4370;48.916;8.380;2022-09-11T16:50:57;2.60;;;2.40;;
8665;SDS011;4370;48.916;8.380;2022-09-11T16:53:24;2.93;;;2.40;;
8665;SDS011;4370;48.916;8.380;2022-09-11T16:55:53;2.20;;;2.00;;
8665;SDS011;4370;48.916;8.380;2022-09-11T16:58:19;2.50;;;2.30;;
8665;SDS011;4370;48.916;8.380;2022-09-11T17:00:46;2.67;;;2.40;;
8665;SDS011;4370;48.916;8.380;2022-09-11T17:03:12;2.30;;;2.10;;
8665;SDS011;4370;48.916;8.380;2022-09-11T17:05:45;2.40;;;2.20;;
8665;SDS011;4370;48.916;8.380;2022-09-11T17:08:12;2.50;;;2.30;;
8665;SDS011;4370;48.916;8.380;2022-09-11T17:10:40;2.30;;;2.10;;
8665;SDS011;4370;48.916;8.380;2022-09-11T17:13:10;2.50;;;2.30;;
8665;SDS011;4370;48.916;8.380;2022-09-11T17:15:37;2.40;;;2.20;;
8665;SDS011;4370;48.916;8.380;2022-09-11T17:18:03;2.30;;;2.10;;
8665;SDS011;4370;48.916;8.380;2022-09-11T17:20:29;2.57;;;2.23;;
8665;SDS011;4370;48.916;8.380;2022-09-11T17:22:55;2.40;;;2.20;;
8665;SDS011;4370;48.916;8.380;2022-09-11T17:25:21;2.60;;;2.40;;
8665;SDS011;4370;48.916;8.380;2022-09-11T17:27:47;4.23;;;2.20;;